createdAt,value
2018-11-27T00:00:38.309Z,100
2018-11-27T00:05:38.331Z,100
2018-11-27T00:10:38.504Z,100
2018-11-27T00:15:38.324Z,100
2018-11-27T00:20:38.328Z,100
2018-11-27T00:25:38.319Z,100
2018-11-27T00:30:38.325Z,100
2018-11-27T00:35:38.289Z,100
2018-11-27T00:40:38.322Z,100
2018-11-27T00:45:38.543Z,100
2018-11-27T00:50:38.340Z,100
2018-11-27T00:55:38.333Z,100
2018-11-27T01:00:38.336Z,100
2018-11-27T01:05:38.452Z,100
2018-11-27T01:10:38.351Z,100
2018-11-27T01:15:38.354Z,100
2018-11-27T01:20:38.347Z,100
2018-11-27T01:25:38.329Z,100
2018-11-27T01:30:38.375Z,100
2018-11-27T01:35:38.361Z,100
2018-11-27T01:40:38.497Z,100
2018-11-27T01:45:38.369Z,100
2018-11-27T01:50:38.319Z,100
2018-11-27T01:55:38.454Z,100
2018-11-27T02:00:38.369Z,100
2018-11-27T02:05:38.369Z,100
2018-11-27T02:10:38.367Z,100
2018-11-27T02:15:38.384Z,100
2018-11-27T02:20:38.370Z,100
2018-11-27T02:25:38.491Z,100
2018-11-27T02:30:38.520Z,100
2018-11-27T02:35:38.390Z,100
2018-11-27T02:40:38.597Z,100
2018-11-27T02:45:38.404Z,100
2018-11-27T02:50:38.560Z,100
2018-11-27T02:55:38.386Z,100
2018-11-27T03:00:38.398Z,100
2018-11-27T03:05:38.360Z,100
2018-11-27T03:10:38.406Z,100
2018-11-27T03:15:38.405Z,100
2018-11-27T03:20:38.398Z,100
2018-11-27T03:25:38.411Z,100
2018-11-27T03:30:38.426Z,100
2018-11-27T03:35:38.423Z,100
2018-11-27T03:40:38.407Z,100
2018-11-27T03:45:38.628Z,100
2018-11-27T03:50:38.423Z,100
2018-11-27T03:55:38.601Z,100
2018-11-27T04:00:38.424Z,100
2018-11-27T04:05:38.426Z,100
2018-11-27T04:10:38.461Z,100
2018-11-27T04:15:38.442Z,100
2018-11-27T04:20:38.438Z,100
2018-11-27T04:25:38.438Z,100
2018-11-27T04:30:38.427Z,100
2018-11-27T04:35:38.447Z,100
2018-11-27T04:40:38.592Z,100
2018-11-27T04:45:38.442Z,100
2018-11-27T04:50:38.669Z,100
2018-11-27T04:55:38.591Z,100
2018-11-27T05:00:38.463Z,100
2018-11-27T05:05:38.687Z,100
2018-11-27T05:10:38.457Z,100
2018-11-27T05:15:38.465Z,100
2018-11-27T05:20:38.548Z,100
2018-11-27T05:25:38.799Z,100
2018-11-27T05:30:38.506Z,100
2018-11-27T05:35:38.570Z,100
2018-11-27T05:40:38.591Z,100
2018-11-27T05:45:38.732Z,100
2018-11-27T05:50:38.539Z,100
2018-11-27T05:55:38.793Z,100
2018-11-27T06:00:38.520Z,100
2018-11-27T06:05:38.676Z,100
2018-11-27T06:10:38.573Z,100
2018-11-27T06:15:38.584Z,100
2018-11-27T06:20:38.586Z,100
2018-11-27T06:25:38.604Z,100
2018-11-27T06:30:38.625Z,100
2018-11-27T06:35:38.609Z,100
2018-11-27T06:40:38.586Z,100
2018-11-27T06:45:38.833Z,100
2018-11-27T06:50:38.609Z,100
2018-11-27T06:55:38.802Z,100
2018-11-27T07:00:38.619Z,100
2018-11-27T07:05:38.629Z,100
2018-11-27T07:10:38.610Z,100
2018-11-27T07:15:38.584Z,100
2018-11-27T07:20:38.750Z,100
2018-11-27T07:25:38.793Z,100
2018-11-27T07:30:38.604Z,100
2018-11-27T07:35:38.765Z,100
2018-11-27T07:40:38.794Z,100
2018-11-27T07:45:38.841Z,100
2018-11-27T07:50:38.741Z,100
2018-11-27T07:55:38.796Z,100
2018-11-27T08:00:38.622Z,100
2018-11-27T08:05:38.870Z,100
2018-11-27T08:10:38.643Z,100
2018-11-27T08:15:38.843Z,100
2018-11-27T08:20:38.643Z,100
2018-11-27T08:25:38.794Z,100
2018-11-27T08:30:38.650Z,100
2018-11-27T08:35:38.775Z,100
2018-11-27T08:40:38.644Z,100
2018-11-27T08:45:38.664Z,100
2018-11-27T08:50:38.873Z,100
2018-11-27T08:55:38.735Z,100
2018-11-27T09:00:38.831Z,100
2018-11-27T09:05:38.888Z,100
2018-11-27T09:10:38.691Z,100
2018-11-27T09:15:38.857Z,100
2018-11-27T09:20:38.844Z,100
2018-11-27T09:25:38.673Z,100
2018-11-27T09:30:38.670Z,100
2018-11-27T09:35:38.885Z,100
2018-11-27T09:40:38.797Z,100
2018-11-27T09:45:38.816Z,100
2018-11-27T09:50:38.693Z,100
2018-11-27T09:55:38.697Z,100
2018-11-27T10:00:38.765Z,100
2018-11-27T10:05:38.708Z,100
2018-11-27T10:10:38.701Z,100
2018-11-27T10:15:38.682Z,100
2018-11-27T10:20:38.710Z,100
2018-11-27T10:25:38.698Z,100
2018-11-27T10:30:38.942Z,100
2018-11-27T10:35:38.849Z,100
2018-11-27T10:40:38.905Z,100
2018-11-27T10:45:38.728Z,100
2018-11-27T10:50:38.844Z,100
2018-11-27T10:55:38.734Z,100
2018-11-27T11:00:40.476Z,100
2018-11-27T11:05:40.481Z,100
2018-11-27T11:10:41.264Z,100
2018-11-27T11:15:40.676Z,100
2018-11-27T11:20:40.585Z,100
2018-11-27T11:25:40.631Z,100
2018-11-27T11:30:40.486Z,100
2018-11-27T11:35:40.486Z,100
2018-11-27T11:40:40.500Z,100
2018-11-27T11:45:40.651Z,100
2018-11-27T11:50:40.775Z,100
2018-11-27T11:55:40.729Z,100
2018-11-27T12:00:40.512Z,100
2018-11-27T12:05:40.506Z,100
2018-11-27T12:10:40.490Z,100
2018-11-27T12:15:40.508Z,100
2018-11-27T12:20:40.486Z,100
2018-11-27T12:25:40.741Z,100
2018-11-27T12:30:40.532Z,100
2018-11-27T12:35:40.529Z,100
2018-11-27T12:40:40.516Z,100
2018-11-27T12:45:40.502Z,100
2018-11-27T12:50:40.545Z,100
2018-11-27T12:55:40.745Z,100
2018-11-27T13:00:40.548Z,100
2018-11-27T13:05:40.564Z,100
2018-11-27T13:10:40.546Z,100
2018-11-27T13:15:40.534Z,100
2018-11-27T13:20:40.585Z,100
2018-11-27T13:25:40.530Z,100
2018-11-27T13:30:40.652Z,100
2018-11-27T13:35:40.704Z,100
2018-11-27T13:40:40.572Z,100
2018-11-27T13:45:40.512Z,100
2018-11-27T13:50:40.560Z,100
2018-11-27T13:55:40.504Z,100
2018-11-27T14:00:40.551Z,100
2018-11-27T14:05:40.539Z,100
2018-11-27T14:10:40.609Z,100
2018-11-27T14:15:40.620Z,100
2018-11-27T14:20:40.579Z,100
2018-11-27T14:25:40.784Z,100
2018-11-27T14:30:40.619Z,100
2018-11-27T14:35:40.819Z,100
2018-11-27T14:40:40.595Z,100
2018-11-27T14:45:40.784Z,100
2018-11-27T14:50:40.567Z,100
2018-11-27T14:55:40.747Z,100
2018-11-27T15:00:40.565Z,100
2018-11-27T15:05:40.589Z,100
2018-11-27T15:10:40.839Z,100
2018-11-27T15:15:40.762Z,100
2018-11-27T15:20:40.722Z,100
2018-11-27T15:25:40.607Z,100
2018-11-27T15:30:40.594Z,100
2018-11-27T15:35:40.861Z,100
2018-11-27T15:40:40.563Z,100
2018-11-27T15:45:40.594Z,100
2018-11-27T15:50:40.797Z,100
2018-11-27T15:55:40.641Z,100
2018-11-27T16:00:40.616Z,100
2018-11-27T16:05:40.635Z,100
2018-11-27T16:10:40.672Z,100
2018-11-27T16:15:40.645Z,100
2018-11-27T16:20:40.634Z,100
2018-11-27T16:25:40.624Z,100
2018-11-27T16:30:40.649Z,100
2018-11-27T16:35:40.830Z,100
2018-11-27T16:40:40.653Z,100
2018-11-27T16:45:40.634Z,100
2018-11-27T16:50:40.722Z,100
2018-11-27T16:55:40.634Z,100
2018-11-27T17:00:41.095Z,100
2018-11-27T17:05:40.670Z,100
2018-11-27T17:10:40.609Z,100
2018-11-27T17:15:40.707Z,100
2018-11-27T17:20:40.663Z,100
2018-11-27T17:25:40.636Z,100
2018-11-27T17:30:40.638Z,100
2018-11-27T17:35:40.735Z,100
2018-11-27T17:40:40.647Z,100
2018-11-27T17:45:40.692Z,100
2018-11-27T17:50:40.688Z,100
2018-11-27T17:55:40.810Z,100
2018-11-27T18:00:40.737Z,100
2018-11-27T18:05:41.510Z,100
2018-11-27T18:10:41.679Z,100
2018-11-27T18:15:40.752Z,100
2018-11-27T18:20:40.825Z,100
2018-11-27T18:25:40.960Z,100
2018-11-27T18:30:40.795Z,100
2018-11-27T18:35:41.219Z,100
2018-11-27T18:40:40.927Z,100
2018-11-27T18:45:40.751Z,100
2018-11-27T18:50:40.732Z,100
2018-11-27T18:55:40.969Z,100
2018-11-27T19:00:40.829Z,100
2018-11-27T19:05:40.870Z,100
2018-11-27T19:10:40.735Z,100
2018-11-27T19:15:40.906Z,100
2018-11-27T19:20:41.379Z,100
2018-11-27T19:25:40.829Z,100
2018-11-27T19:30:40.789Z,100
2018-11-27T19:35:40.779Z,100
2018-11-27T19:40:40.837Z,100
2018-11-27T19:45:41.991Z,100
2018-11-27T19:50:41.907Z,100
2018-11-27T19:55:41.618Z,100
2018-11-27T20:00:41.713Z,99.8
2018-11-27T20:05:41.316Z,98.2
2018-11-27T20:10:41.172Z,98.6
2018-11-27T20:15:41.377Z,96
2018-11-27T20:20:40.704Z,95.7
2018-11-27T20:25:41.446Z,97.2
2018-11-27T20:30:40.744Z,98.2
2018-11-27T20:35:41.314Z,98.8
2018-11-27T20:40:41.465Z,99.3
2018-11-27T20:45:41.378Z,100
2018-11-27T20:50:41.593Z,100
2018-11-27T20:55:40.783Z,100
2018-11-27T21:00:40.922Z,100
2018-11-27T21:05:41.047Z,100
2018-11-27T21:10:41.012Z,100
2018-11-27T21:15:40.809Z,100
2018-11-27T21:20:42.301Z,100
2018-11-27T21:25:41.923Z,99.5
2018-11-27T21:30:40.742Z,99
2018-11-27T21:35:40.781Z,100
2018-11-27T21:40:40.780Z,97.8
2018-11-27T21:45:40.811Z,95.8
2018-11-27T21:50:40.815Z,94.5
2018-11-27T21:55:40.833Z,95.4
2018-11-27T22:00:40.872Z,94.2
2018-11-27T22:05:40.795Z,95.8
2018-11-27T22:10:40.810Z,95.2
2018-11-27T22:15:40.817Z,97.9
2018-11-27T22:20:40.802Z,98
2018-11-27T22:25:40.835Z,97.6
2018-11-27T22:30:40.832Z,96.9
2018-11-27T22:35:40.831Z,96.7
2018-11-27T22:40:41.062Z,97.9
2018-11-27T22:45:40.814Z,97.6
2018-11-27T22:50:40.825Z,97.2
2018-11-27T22:55:40.934Z,97.4
2018-11-27T23:00:40.961Z,96.8
2018-11-27T23:05:41.021Z,95.2
2018-11-27T23:10:40.829Z,95.2
2018-11-27T23:15:40.994Z,96.2
2018-11-27T23:20:40.974Z,98.1
2018-11-27T23:25:40.839Z,97.4
2018-11-27T23:30:40.976Z,98.4
2018-11-27T23:35:41.007Z,97.6
2018-11-27T23:40:40.866Z,97
2018-11-27T23:45:40.970Z,95.6
2018-11-27T23:50:41.025Z,95.6
2018-11-27T23:55:40.861Z,95.6
